sensor_id;sensor_type;location;lat;lon;timestamp;temperature;humidity
75210;DHT22;63796;53.136;14.882;2023-07-28T00:01:09;16.00;99.90
75210;DHT22;63796;53.136;14.882;2023-07-28T00:03:36;15.90;99.90
75210;DHT22;63796;53.136;14.882;2023-07-28T00:06:03;15.90;99.90
75210;DHT22;63796;53.136;14.882;2023-07-28T00:08:30;16.00;99.90
75210;DHT22;63796;53.136;14.882;2023-07-28T00:10:58;16.00;99.90
75210;DHT22;63796;53.136;14.882;2023-07-28T00:13:25;16.00;99.90
75210;DHT22;63796;53.136;14.882;2023-07-28T00:15:52;16.00;99.90
75210;DHT22;63796;53.136;14.882;2023-07-28T00:18:19;16.00;99.90
75210;DHT22;63796;53.136;14.882;2023-07-28T00:20:48;16.00;99.90
75210;DHT22;63796;53.136;14.882;2023-07-28T00:23:15;16.00;99.90
75210;DHT22;63796;53.136;14.882;2023-07-28T00:25:42;16.00;99.90
75210;DHT22;63796;53.136;14.882;2023-07-28T00:28:09;16.00;99.90
75210;DHT22;63796;53.136;14.882;2023-07-28T00:30:36;15.90;99.90
75210;DHT22;63796;53.136;14.882;2023-07-28T00:33:03;15.90;99.90
75210;DHT22;63796;53.136;14.882;2023-07-28T00:35:31;16.00;99.90
75210;DHT22;63796;53.136;14.882;2023-07-28T00:37:58;16.00;99.90
75210;DHT22;63796;53.136;14.882;2023-07-28T00:40:26;15.90;99.90
75210;DHT22;63796;53.136;14.882;2023-07-28T00:42:53;16.00;99.90
75210;DHT22;63796;53.136;14.882;2023-07-28T00:45:20;16.10;99.90
75210;DHT22;63796;53.136;14.882;2023-07-28T00:47:48;16.10;99.90
75210;DHT22;63796;53.136;14.882;2023-07-28T00:50:15;16.00;99.90
75210;DHT22;63796;53.136;14.882;2023-07-28T00:52:42;16.00;99.90
75210;DHT22;63796;53.136;14.882;2023-07-28T00:55:10;16.00;99.90
75210;DHT22;63796;53.136;14.882;2023-07-28T00:57:37;16.00;99.90
75210;DHT22;63796;53.136;14.882;2023-07-28T01:00:06;15.90;99.90
75210;DHT22;63796;53.136;14.882;2023-07-28T01:02:33;15.90;99.90
75210;DHT22;63796;53.136;14.882;2023-07-28T01:05:01;15.90;99.90
75210;DHT22;63796;53.136;14.882;2023-07-28T01:10:28;16.00;99.90
75210;DHT22;63796;53.136;14.882;2023-07-28T01:12:58;16.00;99.90
75210;DHT22;63796;53.136;14.882;2023-07-28T01:15:26;16.00;99.90
75210;DHT22;63796;53.136;14.882;2023-07-28T01:17:53;16.10;99.90
75210;DHT22;63796;53.136;14.882;2023-07-28T01:20:20;16.10;99.90
75210;DHT22;63796;53.136;14.882;2023-07-28T01:25:47;16.10;99.90
75210;DHT22;63796;53.136;14.882;2023-07-28T01:28:36;16.10;99.90
75210;DHT22;63796;53.136;14.882;2023-07-28T01:31:04;16.10;99.90
75210;DHT22;63796;53.136;14.882;2023-07-28T01:33:33;16.10;99.90
75210;DHT22;63796;53.136;14.882;2023-07-28T01:36:01;16.10;99.90
75210;DHT22;63796;53.136;14.882;2023-07-28T01:38:29;16.20;99.90
75210;DHT22;63796;53.136;14.882;2023-07-28T01:40:56;16.10;99.90
75210;DHT22;63796;53.136;14.882;2023-07-28T01:43:23;16.10;99.90
75210;DHT22;63796;53.136;14.882;2023-07-28T01:45:51;16.10;99.90
75210;DHT22;63796;53.136;14.882;2023-07-28T01:48:18;16.20;99.90
75210;DHT22;63796;53.136;14.882;2023-07-28T01:50:45;16.20;99.90
75210;DHT22;63796;53.136;14.882;2023-07-28T01:53:12;16.30;99.90
75210;DHT22;63796;53.136;14.882;2023-07-28T01:55:39;16.30;99.90
75210;DHT22;63796;53.136;14.882;2023-07-28T01:58:06;16.10;99.90
75210;DHT22;63796;53.136;14.882;2023-07-28T02:00:33;16.20;99.90
75210;DHT22;63796;53.136;14.882;2023-07-28T02:03:01;16.20;99.90
75210;DHT22;63796;53.136;14.882;2023-07-28T02:05:30;16.20;99.90
75210;DHT22;63796;53.136;14.882;2023-07-28T02:07:57;16.20;99.90
75210;DHT22;63796;53.136;14.882;2023-07-28T02:10:26;16.20;99.90
75210;DHT22;63796;53.136;14.882;2023-07-28T02:12:53;16.20;99.90
75210;DHT22;63796;53.136;14.882;2023-07-28T02:15:21;16.20;99.90
75210;DHT22;63796;53.136;14.882;2023-07-28T02:17:48;16.20;99.90
75210;DHT22;63796;53.136;14.882;2023-07-28T02:20:16;16.20;99.90
75210;DHT22;63796;53.136;14.882;2023-07-28T02:22:43;16.20;99.90
75210;DHT22;63796;53.136;14.882;2023-07-28T02:25:10;16.30;99.90
75210;DHT22;63796;53.136;14.882;2023-07-28T02:27:37;16.20;99.90
75210;DHT22;63796;53.136;14.882;2023-07-28T02:30:05;16.10;99.90
75210;DHT22;63796;53.136;14.882;2023-07-28T02:32:33;16.20;99.90
75210;DHT22;63796;53.136;14.882;2023-07-28T02:35:01;16.20;99.90
75210;DHT22;63796;53.136;14.882;2023-07-28T02:37:28;16.20;99.90
75210;DHT22;63796;53.136;14.882;2023-07-28T02:39:55;16.20;99.90
75210;DHT22;63796;53.136;14.882;2023-07-28T02:42:22;16.20;99.90
75210;DHT22;63796;53.136;14.882;2023-07-28T02:44:50;16.20;99.90
75210;DHT22;63796;53.136;14.882;2023-07-28T02:47:18;16.10;99.90
75210;DHT22;63796;53.136;14.882;2023-07-28T02:49:45;16.10;99.90
75210;DHT22;63796;53.136;14.882;2023-07-28T02:52:12;16.10;99.90
75210;DHT22;63796;53.136;14.882;2023-07-28T02:54:40;16.10;99.90
75210;DHT22;63796;53.136;14.882;2023-07-28T02:57:07;16.10;99.90
75210;DHT22;63796;53.136;14.882;2023-07-28T02:59:34;16.10;99.90
75210;DHT22;63796;53.136;14.882;2023-07-28T03:02:02;16.10;99.90
75210;DHT22;63796;53.136;14.882;2023-07-28T03:04:29;16.10;99.90
75210;DHT22;63796;53.136;14.882;2023-07-28T03:06:56;16.10;99.90
75210;DHT22;63796;53.136;14.882;2023-07-28T03:09:23;16.10;99.90
75210;DHT22;63796;53.136;14.882;2023-07-28T03:11:50;16.20;99.90
75210;DHT22;63796;53.136;14.882;2023-07-28T03:14:18;16.20;99.90
75210;DHT22;63796;53.136;14.882;2023-07-28T03:16:45;16.30;99.90
75210;DHT22;63796;53.136;14.882;2023-07-28T03:19:12;16.40;99.90
75210;DHT22;63796;53.136;14.882;2023-07-28T03:21:39;16.40;99.90
75210;DHT22;63796;53.136;14.882;2023-07-28T03:24:06;16.30;99.90
75210;DHT22;63796;53.136;14.882;2023-07-28T03:26:33;16.40;99.90
75210;DHT22;63796;53.136;14.882;2023-07-28T03:29:01;16.40;99.90
75210;DHT22;63796;53.136;14.882;2023-07-28T03:31:28;16.30;99.90
75210;DHT22;63796;53.136;14.882;2023-07-28T03:33:55;16.30;99.90
75210;DHT22;63796;53.136;14.882;2023-07-28T03:36:22;16.30;99.90
75210;DHT22;63796;53.136;14.882;2023-07-28T03:38:50;16.40;99.90
75210;DHT22;63796;53.136;14.882;2023-07-28T03:41:17;16.40;99.90
75210;DHT22;63796;53.136;14.882;2023-07-28T03:43:44;16.40;99.90
75210;DHT22;63796;53.136;14.882;2023-07-28T03:46:12;16.50;99.90
75210;DHT22;63796;53.136;14.882;2023-07-28T03:48:39;16.40;99.90
75210;DHT22;63796;53.136;14.882;2023-07-28T03:51:06;16.40;99.90
75210;DHT22;63796;53.136;14.882;2023-07-28T03:53:34;16.50;99.90
75210;DHT22;63796;53.136;14.882;2023-07-28T03:56:02;16.50;99.90
75210;DHT22;63796;53.136;14.882;2023-07-28T03:58:29;16.50;99.90
75210;DHT22;63796;53.136;14.882;2023-07-28T04:00:57;16.60;99.90
75210;DHT22;63796;53.136;14.882;2023-07-28T04:03:24;16.70;99.90
75210;DHT22;63796;53.136;14.882;2023-07-28T04:05:51;16.70;99.90
75210;DHT22;63796;53.136;14.882;2023-07-28T04:08:18;16.60;99.90
75210;DHT22;63796;53.136;14.882;2023-07-28T04:10:46;16.70;99.90
75210;DHT22;63796;53.136;14.882;2023-07-28T04:13:13;16.70;99.90
75210;DHT22;63796;53.136;14.882;2023-07-28T04:15:40;16.80;99.90
75210;DHT22;63796;53.136;14.882;2023-07-28T04:18:07;16.90;99.90
75210;DHT22;63796;53.136;14.882;2023-07-28T04:20:34;17.00;99.90
75210;DHT22;63796;53.136;14.882;2023-07-28T04:23:01;16.90;99.90
75210;DHT22;63796;53.136;14.882;2023-07-28T04:25:28;16.80;99.90
75210;DHT22;63796;53.136;14.882;2023-07-28T04:27:55;16.80;99.90
75210;DHT22;63796;53.136;14.882;2023-07-28T04:30:23;16.90;99.90
75210;DHT22;63796;53.136;14.882;2023-07-28T04:32:50;16.90;99.90
75210;DHT22;63796;53.136;14.882;2023-07-28T04:35:17;16.80;99.90
75210;DHT22;63796;53.136;14.882;2023-07-28T04:37:44;16.90;99.90
75210;DHT22;63796;53.136;14.882;2023-07-28T04:40:11;16.90;99.90
75210;DHT22;63796;53.136;14.882;2023-07-28T04:42:43;16.90;99.90
75210;DHT22;63796;53.136;14.882;2023-07-28T04:45:10;16.80;99.90
75210;DHT22;63796;53.136;14.882;2023-07-28T04:47:37;16.90;99.90
75210;DHT22;63796;53.136;14.882;2023-07-28T04:50:04;16.90;99.90
75210;DHT22;63796;53.136;14.882;2023-07-28T04:52:31;17.00;99.90
75210;DHT22;63796;53.136;14.882;2023-07-28T04:54:58;17.00;99.90
75210;DHT22;63796;53.136;14.882;2023-07-28T04:57:26;17.00;99.90
75210;DHT22;63796;53.136;14.882;2023-07-28T04:59:53;17.00;99.90
75210;DHT22;63796;53.136;14.882;2023-07-28T05:02:21;17.00;99.90
75210;DHT22;63796;53.136;14.882;2023-07-28T05:04:48;17.20;99.90
75210;DHT22;63796;53.136;14.882;2023-07-28T05:07:15;17.20;99.90
75210;DHT22;63796;53.136;14.882;2023-07-28T05:09:42;17.20;99.90
75210;DHT22;63796;53.136;14.882;2023-07-28T05:12:09;17.30;99.90
75210;DHT22;63796;53.136;14.882;2023-07-28T05:14:36;17.40;99.90
75210;DHT22;63796;53.136;14.882;2023-07-28T05:17:03;17.50;99.90
75210;DHT22;63796;53.136;14.882;2023-07-28T05:19:31;17.70;99.90
75210;DHT22;63796;53.136;14.882;2023-07-28T05:21:58;17.90;99.90
75210;DHT22;63796;53.136;14.882;2023-07-28T05:24:25;17.80;99.90
75210;DHT22;63796;53.136;14.882;2023-07-28T05:26:52;17.70;99.90
75210;DHT22;63796;53.136;14.882;2023-07-28T05:29:20;18.00;99.90
75210;DHT22;63796;53.136;14.882;2023-07-28T05:31:47;18.10;99.90
75210;DHT22;63796;53.136;14.882;2023-07-28T05:34:14;18.00;99.90
75210;DHT22;63796;53.136;14.882;2023-07-28T05:36:43;17.90;99.90
75210;DHT22;63796;53.136;14.882;2023-07-28T05:39:10;17.80;99.90
75210;DHT22;63796;53.136;14.882;2023-07-28T05:41:38;17.80;99.90
75210;DHT22;63796;53.136;14.882;2023-07-28T05:44:05;18.10;99.90
75210;DHT22;63796;53.136;14.882;2023-07-28T05:46:33;18.10;99.90
75210;DHT22;63796;53.136;14.882;2023-07-28T05:49:00;18.40;99.90
75210;DHT22;63796;53.136;14.882;2023-07-28T05:51:28;18.50;99.90
75210;DHT22;63796;53.136;14.882;2023-07-28T05:53:55;18.80;99.90
75210;DHT22;63796;53.136;14.882;2023-07-28T05:56:22;19.10;99.90
75210;DHT22;63796;53.136;14.882;2023-07-28T05:58:49;19.20;99.90
75210;DHT22;63796;53.136;14.882;2023-07-28T06:01:17;19.20;99.90
75210;DHT22;63796;53.136;14.882;2023-07-28T06:03:46;19.30;99.90
75210;DHT22;63796;53.136;14.882;2023-07-28T06:06:13;19.50;99.90
75210;DHT22;63796;53.136;14.882;2023-07-28T06:08:40;19.30;99.90
75210;DHT22;63796;53.136;14.882;2023-07-28T06:11:07;19.50;99.90
75210;DHT22;63796;53.136;14.882;2023-07-28T06:13:34;19.70;99.90
75210;DHT22;63796;53.136;14.882;2023-07-28T06:16:02;19.60;99.90
75210;DHT22;63796;53.136;14.882;2023-07-28T06:18:29;19.90;99.90
75210;DHT22;63796;53.136;14.882;2023-07-28T06:20:56;20.40;99.90
75210;DHT22;63796;53.136;14.882;2023-07-28T06:23:23;20.30;99.90
75210;DHT22;63796;53.136;14.882;2023-07-28T06:25:50;19.90;99.90
75210;DHT22;63796;53.136;14.882;2023-07-28T06:28:18;19.90;99.90
75210;DHT22;63796;53.136;14.882;2023-07-28T06:30:45;19.80;99.90
75210;DHT22;63796;53.136;14.882;2023-07-28T06:33:12;19.60;99.90
75210;DHT22;63796;53.136;14.882;2023-07-28T06:35:39;19.90;99.90
75210;DHT22;63796;53.136;14.882;2023-07-28T06:38:07;20.30;99.90
75210;DHT22;63796;53.136;14.882;2023-07-28T06:40:34;20.50;99.90
75210;DHT22;63796;53.136;14.882;2023-07-28T06:43:01;20.70;99.90
75210;DHT22;63796;53.136;14.882;2023-07-28T06:45:28;21.00;99.90
75210;DHT22;63796;53.136;14.882;2023-07-28T06:47:56;21.20;99.90
75210;DHT22;63796;53.136;14.882;2023-07-28T06:50:26;21.10;99.90
75210;DHT22;63796;53.136;14.882;2023-07-28T06:52:53;20.90;99.90
75210;DHT22;63796;53.136;14.882;2023-07-28T06:55:20;20.70;99.90
75210;DHT22;63796;53.136;14.882;2023-07-28T06:57:48;20.50;99.90
75210;DHT22;63796;53.136;14.882;2023-07-28T07:00:16;20.40;99.90
75210;DHT22;63796;53.136;14.882;2023-07-28T07:02:44;20.30;99.90
75210;DHT22;63796;53.136;14.882;2023-07-28T07:05:12;20.30;99.90
75210;DHT22;63796;53.136;14.882;2023-07-28T07:07:40;20.40;99.90
75210;DHT22;63796;53.136;14.882;2023-07-28T07:10:07;20.30;99.90
75210;DHT22;63796;53.136;14.882;2023-07-28T07:12:35;20.50;99.90
75210;DHT22;63796;53.136;14.882;2023-07-28T07:15:03;20.50;99.90
75210;DHT22;63796;53.136;14.882;2023-07-28T07:17:32;20.40;99.90
75210;DHT22;63796;53.136;14.882;2023-07-28T07:19:59;20.30;99.90
75210;DHT22;63796;53.136;14.882;2023-07-28T07:22:27;20.40;99.90
75210;DHT22;63796;53.136;14.882;2023-07-28T07:24:55;20.40;99.90
75210;DHT22;63796;53.136;14.882;2023-07-28T07:27:25;20.40;99.90
75210;DHT22;63796;53.136;14.882;2023-07-28T07:29:53;20.60;99.90
75210;DHT22;63796;53.136;14.882;2023-07-28T07:32:20;20.70;99.90
75210;DHT22;63796;53.136;14.882;2023-07-28T07:34:47;20.80;99.90
75210;DHT22;63796;53.136;14.882;2023-07-28T07:37:14;20.70;99.90
75210;DHT22;63796;53.136;14.882;2023-07-28T07:39:41;20.80;99.90
75210;DHT22;63796;53.136;14.882;2023-07-28T07:42:10;20.90;99.90
75210;DHT22;63796;53.136;14.882;2023-07-28T07:44:41;20.90;99.90
75210;DHT22;63796;53.136;14.882;2023-07-28T07:47:12;21.00;99.90
75210;DHT22;63796;53.136;14.882;2023-07-28T07:49:41;21.40;99.90
75210;DHT22;63796;53.136;14.882;2023-07-28T07:52:09;23.60;99.90
75210;DHT22;63796;53.136;14.882;2023-07-28T07:54:36;23.80;99.90
75210;DHT22;63796;53.136;14.882;2023-07-28T07:57:04;23.40;99.90
75210;DHT22;63796;53.136;14.882;2023-07-28T07:59:32;23.30;99.90
75210;DHT22;63796;53.136;14.882;2023-07-28T08:02:02;23.30;99.90
75210;DHT22;63796;53.136;14.882;2023-07-28T08:04:30;23.10;99.90
75210;DHT22;63796;53.136;14.882;2023-07-28T08:06:58;22.40;99.90
75210;DHT22;63796;53.136;14.882;2023-07-28T08:09:26;21.90;99.90
75210;DHT22;63796;53.136;14.882;2023-07-28T08:11:53;21.50;99.90
75210;DHT22;63796;53.136;14.882;2023-07-28T08:14:21;21.20;99.90
75210;DHT22;63796;53.136;14.882;2023-07-28T08:16:48;21.00;99.90
75210;DHT22;63796;53.136;14.882;2023-07-28T08:19:15;20.80;99.90
75210;DHT22;63796;53.136;14.882;2023-07-28T08:21:42;20.60;99.90
75210;DHT22;63796;53.136;14.882;2023-07-28T08:24:10;20.40;99.90
75210;DHT22;63796;53.136;14.882;2023-07-28T08:26:38;20.20;99.90
75210;DHT22;63796;53.136;14.882;2023-07-28T08:29:05;20.20;99.90
75210;DHT22;63796;53.136;14.882;2023-07-28T08:31:32;20.60;99.90
75210;DHT22;63796;53.136;14.882;2023-07-28T08:34:00;21.60;99.90
75210;DHT22;63796;53.136;14.882;2023-07-28T08:36:27;21.80;99.90
75210;DHT22;63796;53.136;14.882;2023-07-28T08:38:54;22.00;99.90
75210;DHT22;63796;53.136;14.882;2023-07-28T08:41:22;23.50;99.90
75210;DHT22;63796;53.136;14.882;2023-07-28T08:43:49;28.60;99.90
75210;DHT22;63796;53.136;14.882;2023-07-28T08:46:18;33.00;99.90
75210;DHT22;63796;53.136;14.882;2023-07-28T08:48:47;32.30;99.90
75210;DHT22;63796;53.136;14.882;2023-07-28T08:51:14;32.90;99.90
75210;DHT22;63796;53.136;14.882;2023-07-28T08:53:41;33.40;99.90
75210;DHT22;63796;53.136;14.882;2023-07-28T08:56:09;36.50;99.90
75210;DHT22;63796;53.136;14.882;2023-07-28T08:58:36;35.30;99.90
75210;DHT22;63796;53.136;14.882;2023-07-28T09:01:03;37.60;99.90
75210;DHT22;63796;53.136;14.882;2023-07-28T09:03:32;34.70;99.90
75210;DHT22;63796;53.136;14.882;2023-07-28T09:06:01;34.30;99.90
75210;DHT22;63796;53.136;14.882;2023-07-28T09:08:32;33.20;99.90
75210;DHT22;63796;53.136;14.882;2023-07-28T09:11:01;30.30;99.90
75210;DHT22;63796;53.136;14.882;2023-07-28T09:13:35;31.00;99.90
75210;DHT22;63796;53.136;14.882;2023-07-28T09:16:04;31.60;99.90
75210;DHT22;63796;53.136;14.882;2023-07-28T09:18:31;29.20;99.90
75210;DHT22;63796;53.136;14.882;2023-07-28T09:20:59;27.50;99.90
75210;DHT22;63796;53.136;14.882;2023-07-28T09:23:29;27.20;99.90
75210;DHT22;63796;53.136;14.882;2023-07-28T09:26:00;27.30;99.90
75210;DHT22;63796;53.136;14.882;2023-07-28T09:28:37;26.10;99.90
75210;DHT22;63796;53.136;14.882;2023-07-28T09:31:06;25.10;99.90
75210;DHT22;63796;53.136;14.882;2023-07-28T09:33:35;24.30;99.90
75210;DHT22;63796;53.136;14.882;2023-07-28T09:36:07;23.60;99.90
75210;DHT22;63796;53.136;14.882;2023-07-28T09:38:39;23.20;99.90
75210;DHT22;63796;53.136;14.882;2023-07-28T09:41:09;22.90;99.90
75210;DHT22;63796;53.136;14.882;2023-07-28T09:43:38;22.80;99.90
75210;DHT22;63796;53.136;14.882;2023-07-28T09:46:07;22.70;99.90
75210;DHT22;63796;53.136;14.882;2023-07-28T09:48:38;22.70;99.90
75210;DHT22;63796;53.136;14.882;2023-07-28T09:51:17;22.50;99.90
75210;DHT22;63796;53.136;14.882;2023-07-28T09:53:56;22.60;99.90
75210;DHT22;63796;53.136;14.882;2023-07-28T09:56:29;23.10;99.90
75210;DHT22;63796;53.136;14.882;2023-07-28T09:58:59;23.70;99.90
75210;DHT22;63796;53.136;14.882;2023-07-28T10:01:30;24.40;99.90
75210;DHT22;63796;53.136;14.882;2023-07-28T10:04:00;27.30;99.90
75210;DHT22;63796;53.136;14.882;2023-07-28T10:06:28;29.80;99.90
75210;DHT22;63796;53.136;14.882;2023-07-28T10:08:56;28.50;99.90
75210;DHT22;63796;53.136;14.882;2023-07-28T10:11:24;28.60;99.90
75210;DHT22;63796;53.136;14.882;2023-07-28T10:13:54;27.60;99.90
75210;DHT22;63796;53.136;14.882;2023-07-28T10:16:30;27.30;99.90
75210;DHT22;63796;53.136;14.882;2023-07-28T10:19:04;28.40;99.90
75210;DHT22;63796;53.136;14.882;2023-07-28T10:21:31;30.00;99.90
75210;DHT22;63796;53.136;14.882;2023-07-28T10:24:06;32.40;99.90
75210;DHT22;63796;53.136;14.882;2023-07-28T10:26:37;36.10;99.90
75210;DHT22;63796;53.136;14.882;2023-07-28T10:29:15;34.30;99.90
75210;DHT22;63796;53.136;14.882;2023-07-28T10:31:53;32.80;99.90
75210;DHT22;63796;53.136;14.882;2023-07-28T10:34:21;30.70;99.90
75210;DHT22;63796;53.136;14.882;2023-07-28T10:36:58;29.60;99.90
75210;DHT22;63796;53.136;14.882;2023-07-28T10:39:27;29.80;99.90
75210;DHT22;63796;53.136;14.882;2023-07-28T10:44:37;30.10;99.90
75210;DHT22;63796;53.136;14.882;2023-07-28T10:47:08;27.40;99.90
75210;DHT22;63796;53.136;14.882;2023-07-28T10:49:37;25.50;99.90
75210;DHT22;63796;53.136;14.882;2023-07-28T10:52:04;25.00;99.90
75210;DHT22;63796;53.136;14.882;2023-07-28T10:54:31;24.80;99.90
75210;DHT22;63796;53.136;14.882;2023-07-28T10:57:01;24.60;99.90
75210;DHT22;63796;53.136;14.882;2023-07-28T10:59:32;24.50;99.90
75210;DHT22;63796;53.136;14.882;2023-07-28T11:01:59;24.20;99.90
75210;DHT22;63796;53.136;14.882;2023-07-28T11:04:27;24.50;99.90
75210;DHT22;63796;53.136;14.882;2023-07-28T11:06:54;26.10;99.90
75210;DHT22;63796;53.136;14.882;2023-07-28T11:09:22;30.00;99.90
75210;DHT22;63796;53.136;14.882;2023-07-28T11:11:50;35.00;99.90
75210;DHT22;63796;53.136;14.882;2023-07-28T11:14:18;32.30;99.90
75210;DHT22;63796;53.136;14.882;2023-07-28T11:16:47;28.80;99.90
75210;DHT22;63796;53.136;14.882;2023-07-28T11:19:15;26.90;99.90
75210;DHT22;63796;53.136;14.882;2023-07-28T11:21:45;26.00;99.90
75210;DHT22;63796;53.136;14.882;2023-07-28T11:24:19;25.20;99.90
75210;DHT22;63796;53.136;14.882;2023-07-28T11:26:47;25.60;99.90
75210;DHT22;63796;53.136;14.882;2023-07-28T11:29:15;28.60;99.90
75210;DHT22;63796;53.136;14.882;2023-07-28T11:31:45;32.60;99.90
75210;DHT22;63796;53.136;14.882;2023-07-28T11:34:12;35.20;99.90
75210;DHT22;63796;53.136;14.882;2023-07-28T11:36:41;36.60;99.90
75210;DHT22;63796;53.136;14.882;2023-07-28T11:39:08;37.00;99.90
75210;DHT22;63796;53.136;14.882;2023-07-28T11:41:37;37.60;99.90
75210;DHT22;63796;53.136;14.882;2023-07-28T11:44:06;38.20;99.90
75210;DHT22;63796;53.136;14.882;2023-07-28T11:49:12;35.00;99.90
75210;DHT22;63796;53.136;14.882;2023-07-28T11:51:41;30.50;99.90
75210;DHT22;63796;53.136;14.882;2023-07-28T11:54:11;28.80;99.90
75210;DHT22;63796;53.136;14.882;2023-07-28T11:56:41;28.40;99.90
75210;DHT22;63796;53.136;14.882;2023-07-28T11:59:10;28.60;99.90
75210;DHT22;63796;53.136;14.882;2023-07-28T12:01:57;29.00;99.90
75210;DHT22;63796;53.136;14.882;2023-07-28T12:04:35;32.50;99.90
75210;DHT22;63796;53.136;14.882;2023-07-28T12:12:30;31.80;99.90
75210;DHT22;63796;53.136;14.882;2023-07-28T12:15:29;34.90;99.90
75210;DHT22;63796;53.136;14.882;2023-07-28T12:20:47;34.10;99.90
75210;DHT22;63796;53.136;14.882;2023-07-28T12:23:17;30.80;99.90
75210;DHT22;63796;53.136;14.882;2023-07-28T12:25:49;29.50;99.90
75210;DHT22;63796;53.136;14.882;2023-07-28T12:28:17;29.60;99.90
75210;DHT22;63796;53.136;14.882;2023-07-28T12:30:47;29.10;99.90
75210;DHT22;63796;53.136;14.882;2023-07-28T12:33:16;28.80;99.90
75210;DHT22;63796;53.136;14.882;2023-07-28T12:35:47;28.60;99.90
75210;DHT22;63796;53.136;14.882;2023-07-28T12:38:16;28.20;99.90
75210;DHT22;63796;53.136;14.882;2023-07-28T12:40:46;28.00;99.90
75210;DHT22;63796;53.136;14.882;2023-07-28T12:43:18;28.50;99.90
75210;DHT22;63796;53.136;14.882;2023-07-28T12:45:48;28.60;99.90
75210;DHT22;63796;53.136;14.882;2023-07-28T12:48:18;28.80;99.90
75210;DHT22;63796;53.136;14.882;2023-07-28T12:50:47;28.30;99.90
75210;DHT22;63796;53.136;14.882;2023-07-28T12:53:15;28.40;99.90
75210;DHT22;63796;53.136;14.882;2023-07-28T12:55:48;27.50;99.90
75210;DHT22;63796;53.136;14.882;2023-07-28T12:58:19;27.30;99.90
75210;DHT22;63796;53.136;14.882;2023-07-28T13:00:48;27.40;99.90
75210;DHT22;63796;53.136;14.882;2023-07-28T13:03:18;27.20;99.90
75210;DHT22;63796;53.136;14.882;2023-07-28T13:05:46;27.20;99.90
75210;DHT22;63796;53.136;14.882;2023-07-28T13:08:15;26.60;99.90
75210;DHT22;63796;53.136;14.882;2023-07-28T13:10:43;26.30;99.90
75210;DHT22;63796;53.136;14.882;2023-07-28T13:13:13;26.10;99.90
75210;DHT22;63796;53.136;14.882;2023-07-28T13:15:41;25.60;99.90
75210;DHT22;63796;53.136;14.882;2023-07-28T13:18:08;25.50;99.90
75210;DHT22;63796;53.136;14.882;2023-07-28T13:20:35;25.50;99.90
75210;DHT22;63796;53.136;14.882;2023-07-28T13:23:03;26.00;99.90
75210;DHT22;63796;53.136;14.882;2023-07-28T13:25:30;26.10;99.90
75210;DHT22;63796;53.136;14.882;2023-07-28T13:27:57;27.20;99.90
75210;DHT22;63796;53.136;14.882;2023-07-28T13:30:25;27.20;99.90
75210;DHT22;63796;53.136;14.882;2023-07-28T13:32:55;26.40;99.90
75210;DHT22;63796;53.136;14.882;2023-07-28T13:35:23;26.20;99.90
75210;DHT22;63796;53.136;14.882;2023-07-28T13:37:51;26.10;99.90
75210;DHT22;63796;53.136;14.882;2023-07-28T13:40:19;26.20;99.90
75210;DHT22;63796;53.136;14.882;2023-07-28T13:42:46;26.80;99.90
75210;DHT22;63796;53.136;14.882;2023-07-28T13:45:14;26.50;99.90
75210;DHT22;63796;53.136;14.882;2023-07-28T13:47:41;26.20;99.90
75210;DHT22;63796;53.136;14.882;2023-07-28T13:50:08;26.40;99.90
75210;DHT22;63796;53.136;14.882;2023-07-28T13:52:36;26.50;99.90
75210;DHT22;63796;53.136;14.882;2023-07-28T13:55:03;26.30;99.90
75210;DHT22;63796;53.136;14.882;2023-07-28T13:57:34;26.50;99.90
75210;DHT22;63796;53.136;14.882;2023-07-28T14:00:02;26.70;99.90
75210;DHT22;63796;53.136;14.882;2023-07-28T14:02:30;26.80;99.90
75210;DHT22;63796;53.136;14.882;2023-07-28T14:04:58;26.40;99.90
75210;DHT22;63796;53.136;14.882;2023-07-28T14:07:25;26.30;99.90
75210;DHT22;63796;53.136;14.882;2023-07-28T14:09:53;26.60;99.90
75210;DHT22;63796;53.136;14.882;2023-07-28T14:12:20;26.60;99.90
75210;DHT22;63796;53.136;14.882;2023-07-28T14:14:47;26.50;99.90
75210;DHT22;63796;53.136;14.882;2023-07-28T14:17:16;26.60;99.90
75210;DHT22;63796;53.136;14.882;2023-07-28T14:19:43;26.40;99.90
75210;DHT22;63796;53.136;14.882;2023-07-28T14:22:11;26.80;99.90
75210;DHT22;63796;53.136;14.882;2023-07-28T14:24:38;26.80;99.90
75210;DHT22;63796;53.136;14.882;2023-07-28T14:27:06;26.00;99.90
75210;DHT22;63796;53.136;14.882;2023-07-28T14:29:33;26.10;99.90
75210;DHT22;63796;53.136;14.882;2023-07-28T14:32:00;26.30;99.90
75210;DHT22;63796;53.136;14.882;2023-07-28T14:34:27;26.20;99.90
75210;DHT22;63796;53.136;14.882;2023-07-28T14:36:55;26.00;99.90
75210;DHT22;63796;53.136;14.882;2023-07-28T14:39:22;26.20;99.90
75210;DHT22;63796;53.136;14.882;2023-07-28T14:41:50;26.00;99.90
75210;DHT22;63796;53.136;14.882;2023-07-28T14:44:17;25.90;99.90
75210;DHT22;63796;53.136;14.882;2023-07-28T14:46:44;26.10;99.90
75210;DHT22;63796;53.136;14.882;2023-07-28T14:49:13;26.10;99.90
75210;DHT22;63796;53.136;14.882;2023-07-28T14:51:40;26.20;99.90
75210;DHT22;63796;53.136;14.882;2023-07-28T14:54:07;25.80;99.90
75210;DHT22;63796;53.136;14.882;2023-07-28T14:56:34;25.30;99.90
75210;DHT22;63796;53.136;14.882;2023-07-28T14:59:02;25.30;99.90
75210;DHT22;63796;53.136;14.882;2023-07-28T15:01:30;25.40;99.90
75210;DHT22;63796;53.136;14.882;2023-07-28T15:03:57;25.50;99.90
75210;DHT22;63796;53.136;14.882;2023-07-28T15:06:29;25.40;99.90
75210;DHT22;63796;53.136;14.882;2023-07-28T15:08:57;25.60;99.90
75210;DHT22;63796;53.136;14.882;2023-07-28T15:11:24;25.30;99.90
75210;DHT22;63796;53.136;14.882;2023-07-28T15:13:51;25.30;99.90
75210;DHT22;63796;53.136;14.882;2023-07-28T15:16:18;25.10;99.90
75210;DHT22;63796;53.136;14.882;2023-07-28T15:18:46;24.80;99.90
75210;DHT22;63796;53.136;14.882;2023-07-28T15:21:13;25.10;99.90
75210;DHT22;63796;53.136;14.882;2023-07-28T15:23:40;25.30;99.90
75210;DHT22;63796;53.136;14.882;2023-07-28T15:26:07;25.30;99.90
75210;DHT22;63796;53.136;14.882;2023-07-28T15:28:35;25.20;99.90
75210;DHT22;63796;53.136;14.882;2023-07-28T15:31:02;24.70;99.90
75210;DHT22;63796;53.136;14.882;2023-07-28T15:33:29;24.60;99.90
75210;DHT22;63796;53.136;14.882;2023-07-28T15:35:57;25.10;99.90
75210;DHT22;63796;53.136;14.882;2023-07-28T15:38:25;25.20;99.90
75210;DHT22;63796;53.136;14.882;2023-07-28T15:40:52;25.10;99.90